Time;durP1;ratioP1;P1;durP2;ratioP2;P2;SDS_P1;SDS_P2;PMS_P1;PMS_P2;Temp;Humidity;BMP_temperature;BMP_pressure;BME280_temperature;BME280_humidity;BME280_pressure;Samples;Min_cycle;Max_cycle;Signal;HPM_P1;HPM_P2
2023/07/22 00:00:43;;;;;;;1.13;0.88;;;11.40;99.90;;;;;;5015384;28;20477;-72
2023/07/22 00:03:09;;;;;;;0.80;0.65;;;11.40;99.90;;;;;;5015078;28;20029;-72
2023/07/22 00:05:34;;;;;;;4.75;0.70;;;11.50;99.90;;;;;;5014940;28;20041;-72
2023/07/22 00:08:00;;;;;;;1.80;0.82;;;11.50;99.90;;;;;;5015487;28;20041;-72
2023/07/22 00:10:25;;;;;;;0.60;0.52;;;11.60;99.90;;;;;;5015687;28;20455;-72
2023/07/22 00:12:51;;;;;;;0.95;0.35;;;11.70;99.90;;;;;;5015716;28;20392;-72
2023/07/22 00:15:17;;;;;;;0.93;0.35;;;11.80;99.90;;;;;;5015702;28;20042;-72
2023/07/22 00:17:43;;;;;;;0.82;0.52;;;11.90;99.90;;;;;;5016042;28;20046;-72
2023/07/22 00:20:11;;;;;;;1.00;0.80;;;11.90;99.90;;;;;;5014139;28;20104;-72
2023/07/22 00:22:39;;;;;;;0.00;0.00;;;11.80;99.90;;;;;;5015011;28;20169;-72
2023/07/22 00:25:11;;;;;;;0.15;0.15;;;11.70;99.90;;;;;;5014683;28;20037;-72
2023/07/22 00:27:38;;;;;;;0.60;0.57;;;11.60;99.90;;;;;;5007502;28;20551;-72
2023/07/22 00:30:08;;;;;;;0.20;0.20;;;11.50;99.90;;;;;;5014982;28;20053;-72
2023/07/22 00:32:36;;;;;;;0.45;0.25;;;11.40;99.90;;;;;;5015401;28;20124;-72
2023/07/22 00:35:05;;;;;;;0.20;0.20;;;11.20;99.90;;;;;;5014917;28;20071;-72
2023/07/22 00:37:32;;;;;;;2.53;0.98;;;11.10;99.90;;;;;;5015082;28;20045;-72
2023/07/22 00:39:57;;;;;;;0.10;0.10;;;11.10;99.90;;;;;;5014990;28;20081;-72
2023/07/22 00:42:23;;;;;;;3.40;1.35;;;11.00;99.90;;;;;;5014928;28;20042;-72
2023/07/22 00:44:49;;;;;;;0.00;0.00;;;10.90;99.90;;;;;;5014912;28;20037;-72
2023/07/22 00:47:15;;;;;;;0.93;0.50;;;10.90;99.90;;;;;;5014854;28;20481;-72
2023/07/22 00:49:41;;;;;;;2.40;0.90;;;10.80;99.90;;;;;;5014604;28;20041;-72
2023/07/22 00:52:07;;;;;;;0.43;0.32;;;10.80;99.90;;;;;;5014759;28;20037;-72
2023/07/22 00:54:33;;;;;;;0.85;0.55;;;10.80;99.90;;;;;;5015088;28;20041;-72
2023/07/22 00:56:59;;;;;;;0.17;0.17;;;10.80;99.90;;;;;;5014941;28;20134;-72
2023/07/22 00:59:25;;;;;;;0.17;0.17;;;10.80;99.90;;;;;;5014508;28;20096;-72
2023/07/22 01:01:51;;;;;;;6.03;1.65;;;10.80;99.90;;;;;;5014455;28;20042;-72
2023/07/22 01:04:19;;;;;;;1.55;0.73;;;10.80;99.90;;;;;;5015202;28;20121;-72
2023/07/22 01:06:46;;;;;;;0.38;0.28;;;10.90;99.90;;;;;;5015157;28;20050;-72
2023/07/22 01:09:11;;;;;;;2.38;0.40;;;10.90;99.90;;;;;;5015203;28;20420;-72
2023/07/22 01:11:37;;;;;;;0.00;0.00;;;10.80;99.90;;;;;;5014166;28;20034;-72
2023/07/22 01:14:03;;;;;;;0.45;0.25;;;10.80;99.90;;;;;;5014689;28;20041;-72
2023/07/22 01:16:29;;;;;;;1.08;0.55;;;10.70;99.90;;;;;;5014253;28;20113;-72
2023/07/22 01:18:56;;;;;;;0.75;0.60;;;10.70;99.90;;;;;;5014910;28;20073;-72
2023/07/22 01:21:26;;;;;;;0.63;0.63;;;10.60;99.90;;;;;;5014396;28;20049;-72
2023/07/22 01:23:52;;;;;;;1.55;0.70;;;10.60;99.90;;;;;;5015094;28;20081;-72
2023/07/22 01:26:18;;;;;;;3.22;0.30;;;10.60;99.90;;;;;;5014944;28;20125;-72
2023/07/22 01:28:44;;;;;;;0.77;0.77;;;10.70;99.90;;;;;;5014856;28;20033;-72
2023/07/22 01:31:10;;;;;;;0.20;0.20;;;10.70;99.90;;;;;;5014693;28;20396;-72
2023/07/22 01:33:35;;;;;;;0.73;0.60;;;10.80;99.90;;;;;;5014621;28;20183;-72
2023/07/22 01:36:01;;;;;;;0.63;0.47;;;10.90;99.90;;;;;;5014360;28;20081;-72
2023/07/22 01:38:29;;;;;;;0.47;0.15;;;10.90;99.90;;;;;;5014130;28;20046;-72
2023/07/22 01:40:54;;;;;;;0.93;0.85;;;10.80;99.90;;;;;;5013958;28;20129;-72
2023/07/22 01:43:21;;;;;;;1.83;0.80;;;10.70;99.90;;;;;;5013722;28;20081;-72
2023/07/22 01:45:46;;;;;;;0.82;0.68;;;10.60;99.90;;;;;;5014021;28;20065;-72
2023/07/22 01:48:12;;;;;;;0.17;0.13;;;10.50;99.90;;;;;;5014082;28;20033;-72
2023/07/22 01:50:38;;;;;;;0.45;0.40;;;10.30;99.90;;;;;;5013593;28;20034;-72
2023/07/22 01:53:05;;;;;;;1.48;1.38;;;10.30;99.90;;;;;;5013742;28;20053;-72
2023/07/22 01:55:32;;;;;;;0.38;0.38;;;10.30;99.90;;;;;;5013956;28;20129;-72
2023/07/22 01:57:58;;;;;;;0.15;0.15;;;10.20;99.90;;;;;;5014079;28;20050;-72
2023/07/22 02:00:24;;;;;;;0.00;0.00;;;10.20;99.90;;;;;;5013978;28;20044;-72
2023/07/22 02:02:49;;;;;;;0.35;0.35;;;10.10;99.90;;;;;;5014137;28;20113;-72
2023/07/22 02:05:15;;;;;;;0.47;0.20;;;10.00;99.90;;;;;;5014148;28;20182;-72
2023/07/22 02:07:41;;;;;;;0.75;0.55;;;10.00;99.90;;;;;;5014075;28;20400;-72
2023/07/22 02:10:08;;;;;;;0.22;0.22;;;9.90;99.90;;;;;;5013526;28;20042;-72
2023/07/22 02:12:34;;;;;;;1.27;0.35;;;9.80;99.90;;;;;;5013266;28;20038;-71
2023/07/22 02:14:59;;;;;;;0.43;0.30;;;9.80;99.90;;;;;;5013327;28;20045;-72
2023/07/22 02:17:25;;;;;;;2.70;1.27;;;9.70;99.90;;;;;;5012185;28;20049;-72
2023/07/22 02:19:51;;;;;;;0.70;0.60;;;9.80;99.90;;;;;;5013239;28;20069;-72
2023/07/22 02:22:16;;;;;;;0.38;0.38;;;9.60;99.90;;;;;;5012058;28;20139;-72
2023/07/22 02:24:42;;;;;;;0.13;0.13;;;9.60;99.90;;;;;;5011933;28;20073;-72
2023/07/22 02:27:08;;;;;;;0.22;0.10;;;9.60;99.90;;;;;;5013765;28;20048;-71
2023/07/22 02:29:34;;;;;;;2.60;0.45;;;9.50;99.90;;;;;;5013554;28;20052;-72
2023/07/22 02:32:00;;;;;;;0.80;0.80;;;9.50;99.90;;;;;;5013364;28;20041;-72
2023/07/22 02:34:26;;;;;;;1.67;1.45;;;9.40;99.90;;;;;;5012774;28;20049;-72
2023/07/22 02:36:52;;;;;;;0.05;0.05;;;9.40;99.90;;;;;;5013666;28;20042;-72
2023/07/22 02:39:17;;;;;;;1.35;0.60;;;9.40;99.90;;;;;;5013764;28;20046;-72
2023/07/22 02:41:43;;;;;;;0.63;0.60;;;9.40;99.90;;;;;;5013403;28;20505;-72
2023/07/22 02:44:08;;;;;;;0.65;0.45;;;9.30;99.90;;;;;;5012690;28;20117;-72
2023/07/22 02:46:34;;;;;;;0.00;0.00;;;9.30;99.90;;;;;;5013414;28;20108;-72
2023/07/22 02:49:00;;;;;;;0.20;0.20;;;9.30;99.90;;;;;;5013807;28;20034;-72
2023/07/22 02:51:25;;;;;;;0.98;0.55;;;9.30;99.90;;;;;;5013198;28;20069;-72
2023/07/22 02:53:51;;;;;;;0.30;0.28;;;9.30;99.90;;;;;;5013519;28;20412;-72
2023/07/22 02:56:17;;;;;;;0.00;0.00;;;9.30;99.90;;;;;;5013309;28;20422;-71
2023/07/22 02:58:43;;;;;;;0.85;0.40;;;9.30;99.90;;;;;;5012938;28;20061;-72
2023/07/22 03:01:10;;;;;;;1.17;0.40;;;9.30;99.90;;;;;;5012835;28;20404;-72
2023/07/22 03:03:36;;;;;;;1.20;1.10;;;9.30;99.90;;;;;;5013055;28;20549;-72
2023/07/22 03:06:07;;;;;;;6.82;1.45;;;9.20;99.90;;;;;;5013701;28;20435;-72
2023/07/22 03:08:32;;;;;;;0.43;0.43;;;9.20;99.90;;;;;;5013411;28;20049;-72
2023/07/22 03:10:58;;;;;;;0.60;0.50;;;9.10;99.90;;;;;;5013348;28;20133;-72
2023/07/22 03:13:24;;;;;;;1.02;0.85;;;9.10;99.90;;;;;;5012949;28;20117;-72
2023/07/22 03:15:49;;;;;;;0.95;0.73;;;9.00;99.90;;;;;;5012629;28;20073;-72
2023/07/22 03:18:15;;;;;;;1.75;0.47;;;9.00;99.90;;;;;;5013425;28;20042;-72
2023/07/22 03:20:41;;;;;;;0.32;0.32;;;9.00;99.90;;;;;;5013154;28;20105;-72
2023/07/22 03:23:07;;;;;;;0.32;0.32;;;9.10;99.90;;;;;;5012075;28;20038;-72
2023/07/22 03:25:33;;;;;;;0.57;0.52;;;9.10;99.90;;;;;;5012189;28;20187;-72
2023/07/22 03:28:06;;;;;;;0.17;0.17;;;9.10;99.90;;;;;;5012381;28;20497;-72
2023/07/22 03:30:33;;;;;;;0.20;0.20;;;9.10;99.90;;;;;;5011822;28;20057;-72
2023/07/22 03:33:00;;;;;;;0.47;0.47;;;9.20;99.90;;;;;;5012391;28;20056;-72
2023/07/22 03:35:26;;;;;;;0.00;0.00;;;9.20;99.90;;;;;;5012192;28;20093;-72
2023/07/22 03:37:52;;;;;;;2.17;0.75;;;9.30;99.90;;;;;;5012309;28;20049;-72
2023/07/22 03:40:19;;;;;;;0.40;0.38;;;9.30;99.90;;;;;;5012194;28;20477;-72
2023/07/22 03:42:50;;;;;;;0.90;0.90;;;9.30;99.90;;;;;;5012113;28;20038;-72
2023/07/22 03:45:16;;;;;;;0.38;0.38;;;9.40;99.90;;;;;;5013692;28;20041;-72
2023/07/22 03:47:43;;;;;;;0.52;0.52;;;9.30;99.90;;;;;;5015716;28;20048;-72
2023/07/22 03:50:09;;;;;;;0.00;0.00;;;9.40;99.90;;;;;;5015760;28;20400;-72
2023/07/22 03:52:35;;;;;;;0.88;0.70;;;9.40;99.90;;;;;;5014737;28;20045;-72
2023/07/22 03:55:01;;;;;;;0.50;0.50;;;9.50;99.90;;;;;;5014560;28;20381;-72
2023/07/22 03:57:27;;;;;;;0.20;0.13;;;9.60;99.90;;;;;;5014418;28;20030;-72
2023/07/22 03:59:57;;;;;;;0.00;0.00;;;9.70;99.90;;;;;;5014363;28;20042;-72
2023/07/22 04:02:23;;;;;;;0.22;0.22;;;9.80;99.90;;;;;;5014589;28;20046;-72
2023/07/22 04:04:50;;;;;;;0.35;0.35;;;11.30;99.90;;;;;;5014416;28;20073;-72
2023/07/22 04:07:16;;;;;;;1.20;1.10;;;10.00;99.90;;;;;;5014375;28;20066;-72
2023/07/22 04:09:43;;;;;;;0.55;0.50;;;10.10;99.90;;;;;;5014974;28;20084;-72
2023/07/22 04:12:08;;;;;;;0.63;0.63;;;10.10;99.90;;;;;;5015129;28;20080;-72
2023/07/22 04:14:34;;;;;;;0.20;0.20;;;10.20;99.90;;;;;;5014640;28;20473;-72
2023/07/22 04:17:00;;;;;;;0.00;0.00;;;10.30;99.90;;;;;;5014069;28;20034;-72
2023/07/22 04:19:25;;;;;;;0.55;0.52;;;10.40;99.90;;;;;;5013846;28;20042;-72
2023/07/22 04:21:51;;;;;;;1.20;0.70;;;10.40;99.90;;;;;;5013907;28;20044;-72
2023/07/22 04:24:16;;;;;;;0.35;0.32;;;10.50;99.90;;;;;;5014118;28;20042;-71
2023/07/22 04:26:45;;;;;;;2.08;1.40;;;10.60;99.90;;;;;;5014196;28;20563;-72
2023/07/22 04:29:12;;;;;;;1.02;0.80;;;10.70;99.90;;;;;;5014403;28;20092;-72
2023/07/22 04:31:38;;;;;;;0.45;0.43;;;10.80;99.90;;;;;;5015133;28;20124;-72
2023/07/22 04:34:05;;;;;;;0.25;0.17;;;10.90;99.90;;;;;;5014990;28;20124;-72
2023/07/22 04:36:31;;;;;;;0.93;0.68;;;10.90;99.90;;;;;;5014568;28;20389;-72
2023/07/22 04:38:56;;;;;;;1.60;0.80;;;10.90;99.90;;;;;;5014700;28;20104;-72
2023/07/22 04:41:22;;;;;;;1.08;0.98;;;11.00;99.90;;;;;;5014457;28;20116;-72
2023/07/22 04:43:47;;;;;;;0.38;0.35;;;11.00;99.90;;;;;;5014318;28;20492;-71
2023/07/22 04:46:13;;;;;;;0.17;0.17;;;11.10;99.90;;;;;;5014598;28;20047;-72
2023/07/22 04:48:39;;;;;;;0.17;0.17;;;11.10;99.90;;;;;;5014492;28;20084;-72
2023/07/22 04:51:04;;;;;;;0.00;0.00;;;11.20;99.90;;;;;;5014202;28;20077;-72
2023/07/22 04:53:30;;;;;;;0.47;0.47;;;11.20;99.90;;;;;;5013981;28;20045;-72
2023/07/22 04:55:56;;;;;;;1.45;0.70;;;11.30;99.90;;;;;;5013622;28;20046;-72
2023/07/22 04:58:21;;;;;;;0.30;0.30;;;11.40;99.90;;;;;;5013708;28;20370;-72
2023/07/22 05:00:48;;;;;;;0.68;0.68;;;11.40;99.90;;;;;;5014199;28;20041;-72
2023/07/22 05:03:14;;;;;;;1.00;0.90;;;11.50;99.90;;;;;;5014278;28;20095;-72
2023/07/22 05:05:40;;;;;;;0.80;0.80;;;11.50;99.90;;;;;;5014061;28;20124;-72
2023/07/22 05:08:08;;;;;;;0.43;0.43;;;11.60;99.90;;;;;;5014290;28;20133;-72
2023/07/22 05:10:33;;;;;;;0.70;0.70;;;11.70;99.90;;;;;;5014108;28;20042;-72
2023/07/22 05:12:59;;;;;;;0.25;0.25;;;11.70;99.90;;;;;;5014284;28;20048;-72
2023/07/22 05:15:25;;;;;;;1.65;0.90;;;11.80;99.90;;;;;;5014024;28;20070;-72
2023/07/22 05:17:51;;;;;;;1.10;0.65;;;11.80;99.90;;;;;;5014079;28;20049;-72
2023/07/22 05:20:17;;;;;;;0.60;0.52;;;11.90;99.90;;;;;;5013959;28;20125;-72
2023/07/22 05:22:42;;;;;;;0.52;0.30;;;11.90;99.90;;;;;;5013966;28;20042;-72
2023/07/22 05:25:12;;;;;;;6.82;0.43;;;12.00;99.90;;;;;;5013710;28;20042;-72
2023/07/22 05:27:39;;;;;;;3.30;1.17;;;12.00;99.90;;;;;;5014176;28;20400;-72
2023/07/22 05:30:06;;;;;;;0.52;0.40;;;12.10;99.90;;;;;;5013831;28;20504;-72
2023/07/22 05:32:31;;;;;;;1.95;1.50;;;12.30;99.90;;;;;;5013795;28;20415;-72
2023/07/22 05:34:57;;;;;;;0.70;0.70;;;12.40;99.90;;;;;;5013750;28;20118;-72
2023/07/22 05:37:24;;;;;;;0.80;0.75;;;12.50;99.90;;;;;;5013569;28;20555;-72
2023/07/22 05:39:50;;;;;;;0.80;0.60;;;12.80;99.90;;;;;;5013274;28;20128;-72
2023/07/22 05:42:16;;;;;;;0.60;0.50;;;13.10;99.90;;;;;;5013800;28;20038;-72
2023/07/22 05:44:42;;;;;;;5.93;1.00;;;13.30;99.90;;;;;;5013621;28;20077;-72
2023/07/22 05:47:07;;;;;;;4.28;1.40;;;13.50;99.90;;;;;;5013624;28;20072;-72
2023/07/22 05:49:33;;;;;;;0.47;0.35;;;13.90;99.90;;;;;;5013582;28;20030;-71
2023/07/22 05:51:58;;;;;;;0.38;0.38;;;14.50;99.90;;;;;;5013431;28;20038;-72
2023/07/22 05:54:24;;;;;;;1.95;1.38;;;14.70;99.90;;;;;;5013265;28;20042;-72
2023/07/22 05:56:49;;;;;;;0.47;0.32;;;14.70;99.90;;;;;;5013287;28;20044;-72
2023/07/22 05:59:15;;;;;;;1.65;0.85;;;14.60;99.90;;;;;;5013511;28;20436;-72
2023/07/22 06:01:41;;;;;;;0.50;0.50;;;14.50;99.90;;;;;;5013153;28;20061;-72
2023/07/22 06:04:06;;;;;;;1.02;0.63;;;14.70;99.90;;;;;;5005211;28;20049;-72
2023/07/22 06:06:32;;;;;;;0.63;0.63;;;15.10;99.90;;;;;;5013115;28;20041;-72
2023/07/22 06:08:57;;;;;;;4.55;1.20;;;15.60;99.90;;;;;;5012545;28;20081;-72
2023/07/22 06:11:23;;;;;;;18.08;2.20;;;16.00;99.90;;;;;;5013202;28;20041;-72
2023/07/22 06:13:49;;;;;;;0.45;0.43;;;16.30;1.00;;;;;;5013173;28;20181;-72
2023/07/22 06:16:14;;;;;;;0.08;0.08;;;16.40;99.90;;;;;;5012887;28;20049;-72
2023/07/22 06:18:40;;;;;;;1.55;0.85;;;16.40;99.90;;;;;;5012567;28;20401;-72
2023/07/22 06:21:06;;;;;;;0.68;0.63;;;16.40;1.00;;;;;;5012739;28;20057;-72
2023/07/22 06:23:32;;;;;;;1.83;1.33;;;16.40;22.00;;;;;;5012890;28;20481;-72
2023/07/22 06:25:57;;;;;;;1.30;0.57;;;16.50;1.00;;;;;;5012207;28;20043;-72
2023/07/22 06:28:23;;;;;;;0.95;0.85;;;16.70;26.80;;;;;;5012927;28;20056;-72
2023/07/22 06:30:48;;;;;;;0.40;0.30;;;16.90;99.90;;;;;;5012922;28;20040;-72
2023/07/22 06:33:14;;;;;;;0.70;0.70;;;17.00;99.90;;;;;;5012898;28;20507;-72
2023/07/22 06:35:40;;;;;;;0.90;0.85;;;17.40;99.90;;;;;;5011482;28;20077;-72
2023/07/22 06:38:05;;;;;;;0.20;0.20;;;17.70;99.90;;;;;;5010683;28;20049;-72
2023/07/22 06:40:31;;;;;;;1.30;0.73;;;18.10;99.90;;;;;;5009976;28;20508;-72
2023/07/22 06:42:56;;;;;;;0.95;0.68;;;18.10;99.90;;;;;;5010956;28;20125;-72
2023/07/22 06:45:22;;;;;;;1.20;0.88;;;18.10;99.90;;;;;;5012564;28;20045;-72
2023/07/22 06:47:48;;;;;;;1.85;1.13;;;18.00;99.90;;;;;;5011657;28;20121;-72
2023/07/22 06:50:13;;;;;;;1.52;0.80;;;17.90;99.90;;;;;;5012494;28;20507;-72
2023/07/22 06:52:39;;;;;;;2.78;1.45;;;18.00;99.90;;;;;;5010283;28;20107;-72
2023/07/22 06:55:05;;;;;;;1.65;0.88;;;18.20;99.90;;;;;;5009149;28;20408;-72
2023/07/22 06:57:31;;;;;;;4.53;0.90;;;18.40;1.00;;;;;;5009248;28;20551;-72
2023/07/22 06:59:57;;;;;;;1.65;1.20;;;18.40;99.90;;;;;;5009002;28;20089;-72
2023/07/22 07:02:23;;;;;;;7.28;2.35;;;18.40;99.90;;;;;;5009295;28;20038;-72
2023/07/22 07:04:49;;;;;;;0.85;0.50;;;18.60;99.90;;;;;;5009078;28;20034;-72
2023/07/22 07:07:15;;;;;;;1.58;1.02;;;18.70;99.90;;;;;;5009054;28;20042;-72
2023/07/22 07:09:40;;;;;;;1.17;0.85;;;18.70;99.90;;;;;;5008878;28;20496;-72
2023/07/22 07:12:07;;;;;;;5.45;1.02;;;18.90;99.90;;;;;;5009228;28;20038;-72
2023/07/22 07:14:33;;;;;;;0.82;0.80;;;19.00;99.90;;;;;;5009217;28;20042;-72
2023/07/22 07:16:59;;;;;;;1.30;0.50;;;19.20;99.90;;;;;;5009139;28;20045;-72
2023/07/22 07:19:26;;;;;;;0.52;0.50;;;19.50;99.90;;;;;;5009246;28;20041;-72
2023/07/22 07:21:51;;;;;;;1.58;0.90;;;19.40;41.20;;;;;;5012816;28;20045;-72
2023/07/22 07:24:18;;;;;;;1.77;1.25;;;19.30;72.10;;;;;;5012941;28;20038;-72
2023/07/22 07:26:44;;;;;;;0.30;0.30;;;19.00;84.10;;;;;;5013151;28;20046;-71
2023/07/22 07:29:10;;;;;;;0.65;0.65;;;18.70;11.90;;;;;;5013090;28;20072;-71
2023/07/22 07:31:37;;;;;;;0.22;0.20;;;18.40;8.80;;;;;;5012849;28;20532;-72
2023/07/22 07:34:02;;;;;;;1.80;0.40;;;18.10;24.00;;;;;;5012865;28;20411;-72
2023/07/22 07:36:28;;;;;;;1.00;0.90;;;18.00;99.90;;;;;;5012721;28;20054;-72
2023/07/22 07:38:54;;;;;;;0.30;0.30;;;18.00;99.90;;;;;;5012739;28;20125;-72
2023/07/22 07:41:19;;;;;;;1.13;0.68;;;18.10;99.90;;;;;;5012647;28;20049;-72
2023/07/22 07:43:45;;;;;;;0.10;0.10;;;18.30;99.90;;;;;;5012740;28;20508;-72
2023/07/22 07:46:17;;;;;;;0.47;0.47;;;18.50;99.90;;;;;;5012599;28;20124;-72
2023/07/22 07:48:43;;;;;;;0.32;0.30;;;18.70;99.90;;;;;;5012523;28;20053;-72
2023/07/22 07:51:08;;;;;;;1.33;0.85;;;18.90;32.30;;;;;;5012864;28;20056;-72
2023/07/22 07:53:34;;;;;;;5.57;1.25;;;19.10;14.90;;;;;;5012649;28;20112;-72
2023/07/22 07:56:00;;;;;;;1.27;0.68;;;19.30;1.00;;;;;;5012424;28;20397;-72
2023/07/22 07:58:25;;;;;;;0.65;0.35;;;19.80;1.00;;;;;;5012815;28;20041;-72
2023/07/22 08:00:51;;;;;;;0.20;0.20;;;20.70;1.00;;;;;;5012032;28;20369;-72
2023/07/22 08:03:16;;;;;;;3.42;0.95;;;21.50;1.00;;;;;;5012795;28;20056;-72
2023/07/22 08:05:42;;;;;;;0.47;0.43;;;22.30;1.00;;;;;;5012348;28;20547;-72
2023/07/22 08:08:08;;;;;;;0.90;0.73;;;22.30;99.90;;;;;;5012449;28;20038;-71
2023/07/22 08:10:33;;;;;;;0.82;0.70;;;22.30;99.90;;;;;;5012316;28;20132;-72
2023/07/22 08:12:59;;;;;;;0.80;0.60;;;22.50;99.90;;;;;;5012203;28;20515;-72
2023/07/22 08:15:25;;;;;;;2.38;0.68;;;22.80;99.90;;;;;;5011998;28;20485;-72
2023/07/22 08:17:50;;;;;;;0.50;0.50;;;23.00;99.90;;;;;;5011014;28;20488;-72
2023/07/22 08:20:16;;;;;;;2.08;1.10;;;23.20;99.90;;;;;;5010929;28;20089;-72
2023/07/22 08:22:41;;;;;;;0.85;0.70;;;23.10;99.90;;;;;;5011577;28;20124;-71
2023/07/22 08:25:07;;;;;;;2.20;0.82;;;23.20;99.90;;;;;;5011470;28;20381;-72
2023/07/22 08:27:33;;;;;;;2.65;0.47;;;22.90;99.90;;;;;;5003831;28;20037;-72
2023/07/22 08:29:59;;;;;;;0.13;0.13;;;22.40;99.90;;;;;;5010829;28;20049;-72
2023/07/22 08:32:24;;;;;;;2.03;0.35;;;22.20;99.90;;;;;;5009639;28;20057;-73
2023/07/22 08:34:51;;;;;;;1.63;0.65;;;22.20;99.90;;;;;;4934138;28;20164;-72
2023/07/22 08:37:16;;;;;;;0.98;0.30;;;22.20;99.90;;;;;;5011716;28;20041;-72
2023/07/22 08:39:42;;;;;;;0.63;0.50;;;22.10;99.90;;;;;;5010329;28;20048;-72
2023/07/22 08:42:08;;;;;;;0.90;0.70;;;22.30;99.90;;;;;;5011281;28;20077;-72
2023/07/22 08:44:40;;;;;;;0.08;0.08;;;22.50;99.90;;;;;;5009703;28;20046;-72
2023/07/22 08:47:08;;;;;;;0.43;0.43;;;22.50;99.90;;;;;;5009155;28;20451;-72
2023/07/22 08:49:34;;;;;;;1.98;1.42;;;22.40;99.90;;;;;;5009762;28;20073;-72
2023/07/22 08:52:00;;;;;;;1.02;0.47;;;22.40;99.90;;;;;;5011560;28;20088;-72
2023/07/22 08:54:27;;;;;;;0.82;0.73;;;22.50;99.90;;;;;;5010225;28;20033;-72
2023/07/22 08:56:54;;;;;;;0.75;0.70;;;21.90;99.90;;;;;;5010872;28;20110;-72
2023/07/22 08:59:20;;;;;;;0.28;0.28;;;21.50;90.20;;;;;;5011015;28;20374;-72
2023/07/22 09:01:48;;;;;;;0.75;0.55;;;21.20;70.90;;;;;;5012451;28;20076;-71
2023/07/22 09:04:14;;;;;;;0.88;0.32;;;21.00;53.10;;;;;;5012926;28;20033;-72
2023/07/22 09:06:41;;;;;;;0.70;0.25;;;20.80;85.90;;;;;;5013041;28;20045;-72
2023/07/22 09:09:08;;;;;;;0.98;0.80;;;20.80;93.60;;;;;;5010632;28;20104;-71
2023/07/22 09:11:34;;;;;;;1.42;1.33;;;20.50;85.20;;;;;;5009648;28;20052;-72
2023/07/22 09:14:02;;;;;;;0.52;0.50;;;20.20;91.90;;;;;;5010601;28;20092;-72
2023/07/22 09:16:29;;;;;;;7.05;1.83;;;19.70;98.10;;;;;;5010450;28;20041;-72
2023/07/22 09:18:57;;;;;;;0.40;0.40;;;19.30;99.90;;;;;;5010736;28;20048;-72
2023/07/22 09:21:23;;;;;;;0.10;0.10;;;18.80;99.90;;;;;;5007383;28;20088;-72
2023/07/22 09:23:49;;;;;;;0.90;0.73;;;18.30;99.90;;;;;;5010498;28;20470;-72
2023/07/22 09:26:17;;;;;;;0.82;0.70;;;17.90;1.00;;;;;;5010537;28;20057;-73
2023/07/22 09:28:57;;;;;;;1.35;0.25;;;17.40;99.90;;;;;;5010444;28;20479;-72
2023/07/22 09:31:24;;;;;;;2.45;1.35;;;17.10;99.90;;;;;;5008372;28;20476;-72
2023/07/22 09:33:50;;;;;;;0.77;0.68;;;16.90;99.90;;;;;;5010434;28;20088;-72
2023/07/22 09:36:16;;;;;;;0.20;0.20;;;16.90;99.90;;;;;;5010397;28;20042;-72
2023/07/22 09:38:42;;;;;;;0.65;0.50;;;16.90;1.00;;;;;;5010589;28;20045;-72
2023/07/22 09:41:08;;;;;;;0.40;0.28;;;16.90;1.00;;;;;;5008995;28;20100;-72
2023/07/22 09:43:40;;;;;;;0.45;0.43;;;17.10;99.90;;;;;;5009817;28;20045;-72
2023/07/22 09:46:08;;;;;;;1.40;1.10;;;17.40;99.90;;;;;;5009801;28;20483;-72
2023/07/22 09:48:41;;;;;;;0.77;0.75;;;17.80;99.90;;;;;;5010003;28;20042;-72
2023/07/22 09:51:12;;;;;;;0.47;0.47;;;18.10;1.00;;;;;;5010163;28;20046;-72
2023/07/22 09:53:38;;;;;;;0.35;0.30;;;18.30;1.00;;;;;;5009948;28;20124;-72
2023/07/22 09:56:04;;;;;;;0.60;0.38;;;18.30;99.90;;;;;;5009578;28;20152;-72
2023/07/22 09:58:32;;;;;;;1.45;0.77;;;18.50;1.00;;;;;;5010201;28;20041;-72
2023/07/22 10:00:58;;;;;;;5.47;1.38;;;18.60;99.90;;;;;;5009008;28;20046;-72
2023/07/22 10:03:29;;;;;;;1.17;1.08;;;18.70;99.90;;;;;;5008647;28;20416;-71
2023/07/22 10:05:55;;;;;;;0.17;0.10;;;18.70;99.90;;;;;;5009906;28;20041;-71
2023/07/22 10:08:24;;;;;;;0.30;0.30;;;18.90;38.00;;;;;;5010020;28;20046;-72
2023/07/22 10:10:53;;;;;;;1.45;0.47;;;19.10;1.00;;;;;;5009825;28;20056;-72
2023/07/22 10:13:19;;;;;;;0.47;0.47;;;19.30;99.90;;;;;;5010290;28;20038;-72
2023/07/22 10:15:45;;;;;;;8.02;0.40;;;19.40;99.90;;;;;;5009406;28;20053;-72
2023/07/22 10:18:11;;;;;;;0.30;0.30;;;19.40;1.00;;;;;;5009697;28;20454;-72
2023/07/22 10:20:38;;;;;;;1.50;1.25;;;19.40;99.90;;;;;;5009985;28;20030;-72
2023/07/22 10:23:04;;;;;;;0.40;0.30;;;19.30;99.90;;;;;;5009570;28;20044;-72
2023/07/22 10:25:30;;;;;;;0.43;0.43;;;19.30;99.90;;;;;;5009986;28;20033;-72
2023/07/22 10:27:56;;;;;;;0.32;0.22;;;19.20;99.90;;;;;;5010047;28;20048;-72
2023/07/22 10:30:21;;;;;;;0.95;0.65;;;19.20;99.90;;;;;;5009733;28;20037;-72
2023/07/22 10:32:50;;;;;;;0.30;0.25;;;19.20;99.90;;;;;;5009812;28;20042;-73
2023/07/22 10:35:31;;;;;;;0.17;0.17;;;19.00;99.90;;;;;;5011289;28;20038;-72
2023/07/22 10:38:09;;;;;;;0.13;0.10;;;18.90;99.90;;;;;;5012989;28;20129;-71
2023/07/22 10:40:46;;;;;;;0.85;0.77;;;18.80;99.90;;;;;;5010678;28;20077;-71
2023/07/22 10:43:11;;;;;;;1.08;0.43;;;18.60;1.00;;;;;;5011640;28;20492;-72
2023/07/22 10:45:42;;;;;;;1.25;0.52;;;18.50;1.00;;;;;;5010844;28;20096;-72
2023/07/22 10:48:11;;;;;;;1.83;0.85;;;18.30;99.90;;;;;;5012738;28;20544;-72
2023/07/22 10:50:46;;;;;;;1.50;0.88;;;18.20;99.90;;;;;;5012448;28;20045;-72
2023/07/22 10:53:13;;;;;;;0.65;0.57;;;18.10;1.00;;;;;;5012675;28;20040;-72
2023/07/22 10:56:13;;;;;;;2.38;1.17;;;18.00;99.90;;;;;;5011313;28;20400;-72
2023/07/22 10:58:45;;;;;;;0.40;0.25;;;17.80;99.90;;;;;;5012683;28;20095;-72
2023/07/22 11:01:28;;;;;;;0.80;0.65;;;17.40;1.00;;;;;;5012562;28;20052;-72
2023/07/22 11:04:31;;;;;;;0.80;0.75;;;17.20;1.00;;;;;;5012577;28;20057;-72
2023/07/22 11:07:04;;;;;;;0.43;0.30;;;17.00;99.90;;;;;;5012417;28;20050;-72
2023/07/22 11:09:33;;;;;;;0.93;0.40;;;16.80;99.90;;;;;;5012677;28;20050;-72
2023/07/22 11:12:18;;;;;;;0.10;0.10;;;16.60;99.90;;;;;;5012469;28;20038;-71
2023/07/22 11:14:48;;;;;;;0.20;0.20;;;16.50;99.90;;;;;;5012498;28;20111;-71
2023/07/22 11:17:14;;;;;;;0.75;0.65;;;16.50;99.90;;;;;;5012434;28;20085;-71
2023/07/22 11:19:40;;;;;;;0.00;0.00;;;16.50;1.00;;;;;;5012669;28;20078;-71
2023/07/22 11:22:06;;;;;;;0.90;0.70;;;16.50;1.00;;;;;;5012171;28;20400;-71
2023/07/22 11:24:36;;;;;;;1.20;0.43;;;16.40;1.00;;;;;;5012407;28;20459;-71
2023/07/22 11:27:06;;;;;;;1.05;0.65;;;16.40;99.90;;;;;;5012303;28;20057;-71
2023/07/22 11:29:31;;;;;;;0.68;0.52;;;16.60;99.90;;;;;;5004300;28;20053;-71
2023/07/22 11:31:57;;;;;;;0.57;0.55;;;16.60;99.90;;;;;;5012515;28;20362;-71
2023/07/22 11:34:24;;;;;;;0.95;0.77;;;16.80;99.90;;;;;;5012157;28;20046;-71
2023/07/22 11:36:51;;;;;;;1.88;0.63;;;16.80;99.90;;;;;;5012071;28;20042;-71
2023/07/22 11:39:19;;;;;;;1.63;0.70;;;16.80;99.90;;;;;;5011752;28;20381;-71
2023/07/22 11:41:46;;;;;;;2.03;0.93;;;16.70;99.90;;;;;;5011929;28;20505;-71
2023/07/22 11:44:14;;;;;;;0.25;0.17;;;16.60;99.90;;;;;;5011892;28;20081;-71
2023/07/22 11:47:03;;;;;;;4.65;0.30;;;16.50;99.90;;;;;;5012241;28;20046;-71
2023/07/22 11:49:33;;;;;;;0.73;0.73;;;16.40;99.90;;;;;;5012199;28;20045;-71
2023/07/22 11:52:04;;;;;;;0.00;0.00;;;16.30;99.90;;;;;;5012004;28;20504;-71
2023/07/22 11:54:32;;;;;;;0.80;0.50;;;16.10;99.90;;;;;;5011878;28;20058;-71
2023/07/22 11:57:20;;;;;;;0.35;0.30;;;16.10;99.90;;;;;;5004052;28;20042;-71
2023/07/22 11:59:47;;;;;;;0.30;0.30;;;16.00;99.90;;;;;;5011913;28;20492;-71
2023/07/22 12:02:18;;;;;;;0.65;0.45;;;16.10;99.90;;;;;;5011981;28;20036;-71
2023/07/22 12:04:59;;;;;;;0.73;0.50;;;16.10;99.90;;;;;;5011769;28;20095;-71
2023/07/22 12:07:27;;;;;;;1.45;0.68;;;16.10;99.90;;;;;;5015211;28;20038;-71
2023/07/22 12:09:55;;;;;;;0.63;0.47;;;16.20;99.90;;;;;;5015365;28;20044;-71
2023/07/22 12:12:20;;;;;;;0.30;0.30;;;16.20;99.90;;;;;;5015579;28;20064;-71
2023/07/22 12:14:46;;;;;;;2.88;1.55;;;16.30;99.90;;;;;;5015365;28;20054;-71
2023/07/22 12:17:12;;;;;;;0.68;0.60;;;16.30;99.90;;;;;;5015023;28;20046;-71
2023/07/22 12:19:37;;;;;;;2.30;0.68;;;16.40;99.90;;;;;;5015253;28;20034;-71
2023/07/22 12:22:03;;;;;;;0.73;0.43;;;16.40;99.90;;;;;;5015282;28;20100;-71
2023/07/22 12:24:30;;;;;;;1.38;1.05;;;16.40;99.90;;;;;;5015110;28;20041;-71
2023/07/22 12:26:55;;;;;;;0.50;0.40;;;16.40;99.90;;;;;;5015032;28;20077;-71
2023/07/22 12:29:22;;;;;;;0.20;0.10;;;16.50;99.90;;;;;;5014999;28;20073;-71
2023/07/22 12:31:48;;;;;;;0.17;0.17;;;16.50;99.90;;;;;;5015077;28;20041;-71
2023/07/22 12:34:14;;;;;;;1.48;1.05;;;16.60;99.90;;;;;;5014904;28;20042;-71
2023/07/22 12:36:41;;;;;;;0.43;0.22;;;16.60;99.90;;;;;;5014861;28;20034;-71
2023/07/22 12:39:06;;;;;;;0.17;0.17;;;16.60;99.90;;;;;;5015039;28;20050;-71
2023/07/22 12:41:32;;;;;;;1.02;0.40;;;16.40;99.90;;;;;;5014509;28;20061;-71
2023/07/22 12:43:58;;;;;;;0.47;0.25;;;16.30;99.90;;;;;;5014624;28;20038;-71
2023/07/22 12:46:23;;;;;;;0.88;0.77;;;16.20;99.90;;;;;;5014877;28;20104;-71